Time;durP1;ratioP1;P1;durP2;ratioP2;P2;SDS_P1;SDS_P2;PMS_P1;PMS_P2;Temp;Humidity;BMP_temperature;BMP_pressure;BME280_temperature;BME280_humidity;BME280_pressure;Samples;Min_cycle;Max_cycle;Signal;HPM_P1;HPM_P2
2022/04/01 00:02:14;;;;;;;;;;;;;;;;;;5038906;28;19979;-89
2022/04/01 00:05:09;;;;;;;;;;;;;;;;;;5049667;28;19919;-87
2022/04/01 00:07:55;;;;;;;;;;;;;;;;;;5007134;28;19948;-90
2022/04/01 00:10:33;;;;;;;;;;;;;;;;;;4993336;28;20055;-90
2022/04/01 00:13:01;;;;;;;;;;;;;;;;;;4992081;28;19913;-88
2022/04/01 00:15:27;;;;;;;;;;;;;;;;;;4992910;28;20025;-89
2022/04/01 00:18:04;;;;;;;;;;;;;;;;;;5008241;28;20358;-88
2022/04/01 00:20:37;;;;;;;;;;;;;;;;;;5019270;28;19910;-88
2022/04/01 00:23:02;;;;;;;;;;;;;;;;;;4999960;28;19918;-87
2022/04/01 00:25:27;;;;;;;;;;;;;;;;;;5010522;28;19932;-86
2022/04/01 00:28:01;;;;;;;;;;;;;;;;;;5017811;28;19973;-88
2022/04/01 00:30:47;;;;;;;;;;;;;;;;;;5033473;28;20004;-88
2022/04/01 00:33:14;;;;;;;;;;;;;;;;;;5006095;28;19975;-91
2022/04/01 00:35:45;;;;;;;;;;;;;;;;;;5008084;28;20035;-91
2022/04/01 00:38:31;;;;;;;;;;;;;;;;;;4996199;28;19917;-91
2022/04/01 00:41:03;;;;;;;;;;;;;;;;;;5029548;28;19913;-92
2022/04/01 00:44:10;;;;;;;;;;;;;;;;;;5011684;28;19913;-91
2022/04/01 00:46:36;;;;;;;;;;;;;;;;;;5023331;28;19917;-90
2022/04/01 00:49:11;;;;;;;;;;;;;;;;;;4995002;28;19927;-90
2022/04/01 00:51:55;;;;;;;;;;;;;;;;;;5008449;28;20005;-89
2022/04/01 00:54:22;;;;;;;;;;;;;;;;;;5014946;28;19929;-91
2022/04/01 00:56:56;;;;;;;;;;;;;;;;;;4994672;28;19918;-88
2022/04/01 00:59:22;;;;;;;;;;;;;;;;;;4989578;28;19914;-89
2022/04/01 01:02:00;;;;;;;;;;;;;;;;;;5008350;28;19927;-89
2022/04/01 01:04:26;;;;;;;;;;;;;;;;;;5003530;28;20003;-90
2022/04/01 01:06:57;;;;;;;;;;;;;;;;;;4990702;28;19925;-89
2022/04/01 01:09:23;;;;;;;;;;;;;;;;;;5008337;28;19917;-94
2022/04/01 01:11:53;;;;;;;;;;;;;;;;;;4991479;28;19925;-89
2022/04/01 01:14:25;;;;;;;;;;;;;;;;;;5016803;28;19913;-91
2022/04/01 01:17:03;;;;;;;;;;;;;;;;;;5038788;28;20250;-90
2022/04/01 01:19:32;;;;;;;;;;;;;;;;;;5003777;28;19980;-90
2022/04/01 01:22:01;;;;;;;;;;;;;;;;;;4985832;28;19913;-92
2022/04/01 01:24:33;;;;;;;;;;;;;;;;;;5003755;28;19972;-90
2022/04/01 01:29:56;;;;;;;;;;;;;;;;;;4967636;28;19941;-91
2022/04/01 01:33:01;;;;;;;;;;;;;;;;;;4991902;28;19913;-89
2022/04/01 01:35:45;;;;;;;;;;;;;;;;;;4990147;28;19996;-92
2022/04/01 01:38:20;;;;;;;;;;;;;;;;;;4991147;28;19951;-89
2022/04/01 01:41:09;;;;;;;;;;;;;;;;;;4991879;28;19980;-90
2022/04/01 01:43:42;;;;;;;;;;;;;;;;;;4988190;28;19972;-89
2022/04/01 01:46:23;;;;;;;;;;;;;;;;;;4975805;28;19969;-89
2022/04/01 01:49:13;;;;;;;;;;;;;;;;;;4992766;28;19953;-92
2022/04/01 01:54:45;;;;;;;;;;;;;;;;;;4966253;28;19914;-90
2022/04/01 01:57:17;;;;;;;;;;;;;;;;;;4950209;28;19953;-89
2022/04/01 01:59:56;;;;;;;;;;;;;;;;;;4945270;29;19930;-91
2022/04/01 02:02:22;;;;;;;;;;;;;;;;;;4934754;29;19919;-90
2022/04/01 02:07:39;;;;;;;;;;;;;;;;;;4940202;29;20021;-89
2022/04/01 02:10:19;;;;;;;;;;;;;;;;;;4960813;28;19925;-91
2022/04/01 02:12:46;;;;;;;;;;;;;;;;;;4966453;28;19965;-90
2022/04/01 02:15:14;;;;;;;;;;;;;;;;;;4982149;28;20065;-89
2022/04/01 02:17:45;;;;;;;;;;;;;;;;;;4968104;28;20025;-90
2022/04/01 02:20:44;;;;;;;;;;;;;;;;;;4980079;28;19925;-89
2022/04/01 02:23:13;;;;;;;;;;;;;;;;;;4980291;28;19914;-91
2022/04/01 02:25:57;;;;;;;;;;;;;;;;;;4983060;28;20552;-89
2022/04/01 02:28:28;;;;;;;;;;;;;;;;;;4954600;28;19997;-92
2022/04/01 02:31:17;;;;;;;;;;;;;;;;;;4998514;28;19953;-87
2022/04/01 02:33:54;;;;;;;;;;;;;;;;;;4991079;28;19914;-90
2022/04/01 02:36:37;;;;;;;;;;;;;;;;;;5012585;28;20008;-91
2022/04/01 02:39:19;;;;;;;;;;;;;;;;;;5003329;28;19921;-91
2022/04/01 02:45:01;;;;;;;;;;;;;;;;;;4995634;28;19964;-90
2022/04/01 02:47:49;;;;;;;;;;;;;;;;;;5005373;28;19952;-91
2022/04/01 02:50:41;;;;;;;;;;;;;;;;;;5034170;28;19921;-88
2022/04/01 02:53:40;;;;;;;;;;;;;;;;;;5006625;28;20079;-90
2022/04/01 02:56:10;;;;;;;;;;;;;;;;;;5022714;28;19921;-93
2022/04/01 02:58:44;;;;;;;;;;;;;;;;;;5013474;28;19989;-91
2022/04/01 03:01:33;;;;;;;;;;;;;;;;;;5031844;28;19918;-90
2022/04/01 03:04:02;;;;;;;;;;;;;;;;;;5038417;28;19940;-89
2022/04/01 03:06:35;;;;;;;;;;;;;;;;;;5042541;28;19925;-90
2022/04/01 03:09:24;;;;;;;;;;;;;;;;;;5037407;28;20335;-92
2022/04/01 03:12:11;;;;;;;;;;;;;;;;;;5011332;28;20036;-90
2022/04/01 03:14:37;;;;;;;;;;;;;;;;;;4995331;28;19913;-91
2022/04/01 03:17:17;;;;;;;;;;;;;;;;;;5016148;28;19925;-94
2022/04/01 03:19:42;;;;;;;;;;;;;;;;;;5017134;28;19917;-91
2022/04/01 03:22:34;;;;;;;;;;;;;;;;;;5026312;28;20036;-91
2022/04/01 03:25:11;;;;;;;;;;;;;;;;;;4992147;28;19975;-92
2022/04/01 03:27:40;;;;;;;;;;;;;;;;;;5006183;28;19928;-91
2022/04/01 03:30:13;;;;;;;;;;;;;;;;;;5008910;28;19921;-90
2022/04/01 03:32:38;;;;;;;;;;;;;;;;;;4995846;28;20236;-92
2022/04/01 03:35:07;;;;;;;;;;;;;;;;;;4993062;28;19988;-91
2022/04/01 03:37:43;;;;;;;;;;;;;;;;;;4990519;28;19918;-92
2022/04/01 03:40:18;;;;;;;;;;;;;;;;;;4973549;28;20016;-88
2022/04/01 03:42:44;;;;;;;;;;;;;;;;;;5007620;28;19913;-89
2022/04/01 03:45:26;;;;;;;;;;;;;;;;;;5031454;28;19918;-91
2022/04/01 03:48:01;;;;;;;;;;;;;;;;;;5026160;28;19918;-91
2022/04/01 03:50:35;;;;;;;;;;;;;;;;;;5040414;28;19944;-89
2022/04/01 03:53:15;;;;;;;;;;;;;;;;;;5010001;28;19956;-88
2022/04/01 03:56:06;;;;;;;;;;;;;;;;;;5024621;28;19917;-90
2022/04/01 03:58:37;;;;;;;;;;;;;;;;;;5025792;28;19914;-89
2022/04/01 04:01:28;;;;;;;;;;;;;;;;;;4931832;29;19943;-89
2022/04/01 04:04:10;;;;;;;;;;;;;;;;;;4925361;29;19919;-91
2022/04/01 04:06:37;;;;;;;;;;;;;;;;;;4991799;28;19924;-90
2022/04/01 04:09:13;;;;;;;;;;;;;;;;;;5031412;28;19909;-92
2022/04/01 04:12:09;;;;;;;;;;;;;;;;;;;;;
2022/04/01 04:18:09;;;;;;;;;;;;;;;;;;;;;
2022/04/01 04:20:43;;;;;;;;;;;;;;;;;;5029898;28;19978;-93
2022/04/01 04:23:28;;;;;;;;;;;;;;;;;;;;;
2022/04/01 04:26:11;;;;;;;;;;;;;;;;;;5046155;28;19976;-89
2022/04/01 04:28:43;;;;;;;;;;;;;;;;;;5044414;28;19936;-89
2022/04/01 04:31:09;;;;;;;;;;;;;;;;;;5030315;28;19917;-89
2022/04/01 04:33:47;;;;;;;;;;;;;;;;;;5033998;28;19996;-88
2022/04/01 04:36:25;;;;;;;;;;;;;;;;;;5040277;28;19920;-87
2022/04/01 04:39:07;;;;;;;;;;;;;;;;;;;;;
2022/04/01 04:41:33;;;;;;;;;;;;;;;;;;5045279;28;19913;-90
2022/04/01 04:44:16;;;;;;;;;;;;;;;;;;5024013;28;19970;-90
2022/04/01 04:46:54;;;;;;;;;;;;;;;;;;5035776;28;20277;-92
2022/04/01 04:49:37;;;;;;;;;;;;;;;;;;5021994;28;19922;-90
2022/04/01 04:52:15;;;;;;;;;;;;;;;;;;4987537;28;19968;-91
2022/04/01 04:54:50;;;;;;;;;;;;;;;;;;5004187;28;19938;-92
2022/04/01 04:57:18;;;;;;;;;;;;;;;;;;5021046;28;19921;-92
2022/04/01 04:59:52;;;;;;;;;;;;;;;;;;5002607;28;19918;-90
2022/04/01 05:02:21;;;;;;;;;;;;;;;;;;5007059;28;19998;-93
2022/04/01 05:08:38;;;;;;;;;;;;;;;;;;;;;
2022/04/01 05:17:40;;;;;;;;;;;;;;;;;;4975918;28;19960;-90
2022/04/01 05:20:49;;;;;;;;;;;;;;;;;;5005670;28;19924;-92
2022/04/01 05:26:09;;;;;;;;;;;;;;;;;;4996552;28;19917;-90
2022/04/01 05:29:03;;;;;;;;;;;;;;;;;;5011514;28;19913;-90
2022/04/01 05:31:30;;;;;;;;;;;;;;;;;;5004414;28;19981;-90
2022/04/01 05:34:13;;;;;;;;;;;;;;;;;;;;;
2022/04/01 05:37:11;;;;;;;;;;;;;;;;;;5000358;28;19948;-92
2022/04/01 05:40:00;;;;;;;;;;;;;;;;;;;;;
2022/04/01 05:42:32;;;;;;;;;;;;;;;;;;5018970;28;19921;-89
2022/04/01 05:45:09;;;;;;;;;;;;;;;;;;5017373;28;19914;-92
2022/04/01 05:47:52;;;;;;;;;;;;;;;;;;;;;
2022/04/01 05:50:49;;;;;;;;;;;;;;;;;;4996722;28;19944;-91
2022/04/01 05:53:32;;;;;;;;;;;;;;;;;;5004993;28;19925;-93
2022/04/01 05:58:52;;;;;;;;;;;;;;;;;;4944435;28;20005;-59
2022/04/01 06:01:20;;;;;;;;;;;;;;;;;;4946465;28;20009;-59
2022/04/01 06:03:50;;;;;;;;;;;;;;;;;;4915632;28;19922;-57
2022/04/01 06:06:15;;;;;;;;;;;;;;;;;;4928964;28;20381;-58
2022/04/01 06:08:44;;;;;;;;;;;;;;;;;;4932401;28;20036;-61
2022/04/01 06:11:12;;;;;;;;;;;;;;;;;;4931745;28;20376;-58
2022/04/01 06:13:39;;;;;;;;;;;;;;;;;;4946810;28;19923;-57
2022/04/01 06:16:07;;;;;;;;;;;;;;;;;;4946448;28;19980;-58
2022/04/01 06:18:32;;;;;;;;;;;;;;;;;;4932013;28;19929;-58
2022/04/01 06:21:00;;;;;;;;;;;;;;;;;;4949463;28;19923;-58
2022/04/01 06:23:25;;;;;;;;;;;;;;;;;;4934362;28;19926;-58
2022/04/01 06:25:55;;;;;;;;;;;;;;;;;;4934782;28;19926;-57
2022/04/01 06:28:24;;;;;;;;;;;;;;;;;;4932722;28;20000;-58
2022/04/01 06:30:52;;;;;;;;;;;;;;;;;;4949000;28;19922;-58
2022/04/01 06:33:22;;;;;;;;;;;;;;;;;;4950615;28;19918;-58
2022/04/01 06:35:49;;;;;;;;;;;;;;;;;;4949464;28;19924;-58
2022/04/01 06:38:14;;;;;;;;;;;;;;;;;;4934046;28;19926;-58
2022/04/01 06:40:44;;;;;;;;;;;;;;;;;;4936791;28;19922;-58
2022/04/01 06:43:10;;;;;;;;;;;;;;;;;;4949554;28;19929;-58
2022/04/01 06:45:40;;;;;;;;;;;;;;;;;;4936669;28;19970;-56
2022/04/01 06:48:08;;;;;;;;;;;;;;;;;;4964545;28;20373;-56
2022/04/01 06:50:37;;;;;;;;;;;;;;;;;;4936920;28;20449;-59
2022/04/01 06:53:05;;;;;;;;;;;;;;;;;;4950735;28;20026;-57
2022/04/01 06:55:33;;;;;;;;;;;;;;;;;;4967081;28;20068;-56
2022/04/01 06:58:01;;;;;;;;;;;;;;;;;;4965552;28;19930;-56
2022/04/01 07:00:29;;;;;;;;;;;;;;;;;;4936107;28;19922;-57
2022/04/01 07:02:55;;;;;;;;;;;;;;;;;;4967329;28;20100;-57
2022/04/01 07:05:23;;;;;;;;;;;;;;;;;;4935668;28;19919;-57
2022/04/01 07:07:51;;;;;;;;;;;;;;;;;;4933820;28;19918;-55
2022/04/01 07:10:18;;;;;;;;;;;;;;;;;;4967619;28;19927;-56
2022/04/01 07:12:46;;;;;;;;;;;;;;;;;;4964158;28;20121;-57
2022/04/01 07:15:14;;;;;;;;;;;;;;;;;;4966204;28;19930;-57
2022/04/01 07:17:39;;;;;;;;;;;;;;;;;;4935552;28;19994;-57
2022/04/01 07:20:08;;;;;;;;;;;;;;;;;;4933317;28;19945;-58
2022/04/01 07:22:36;;;;;;;;;;;;;;;;;;4966165;28;19981;-60
2022/04/01 07:25:03;;;;;;;;;;;;;;;;;;4935468;28;19918;-58
2022/04/01 07:27:29;;;;;;;;;;;;;;;;;;4933332;28;19930;-57
2022/04/01 07:29:59;;;;;;;;;;;;;;;;;;4947907;28;20013;-58
2022/04/01 07:32:34;;;;;;;;;;;;;;;;;;4932844;28;20040;-59
2022/04/01 07:34:59;;;;;;;;;;;;;;;;;;4935767;28;19976;-60
2022/04/01 07:37:25;;;;;;;;;;;;;;;;;;4933564;28;19918;-61
2022/04/01 07:39:51;;;;;;;;;;;;;;;;;;4933909;28;19934;-59
2022/04/01 07:42:21;;;;;;;;;;;;;;;;;;4935518;28;19918;-61
2022/04/01 07:44:46;;;;;;;;;;;;;;;;;;4966124;28;20389;-62
2022/04/01 07:47:14;;;;;;;;;;;;;;;;;;4934042;28;19923;-59
2022/04/01 07:49:40;;;;;;;;;;;;;;;;;;4964578;28;19926;-57
2022/04/01 07:52:09;;;;;;;;;;;;;;;;;;4933106;28;20385;-57
2022/04/01 07:54:34;;;;;;;;;;;;;;;;;;4946961;28;20287;-59
2022/04/01 07:57:04;;;;;;;;;;;;;;;;;;4934379;28;19923;-59
2022/04/01 07:59:31;;;;;;;;;;;;;;;;;;4964897;28;20005;-59
2022/04/01 08:01:57;;;;;;;;;;;;;;;;;;4933595;28;19937;-61
2022/04/01 08:04:28;;;;;;;;;;;;;;;;;;4932891;28;20537;-58
2022/04/01 08:06:53;;;;;;;;;;;;;;;;;;4964778;28;20033;-59
2022/04/01 08:09:18;;;;;;;;;;;;;;;;;;4934135;28;20557;-58
2022/04/01 08:11:46;;;;;;;;;;;;;;;;;;4934480;28;19918;-59
2022/04/01 08:14:14;;;;;;;;;;;;;;;;;;4963495;28;20001;-61
2022/04/01 08:16:44;;;;;;;;;;;;;;;;;;4934975;28;20065;-59
2022/04/01 08:19:12;;;;;;;;;;;;;;;;;;4932315;28;19930;-57
2022/04/01 08:21:37;;;;;;;;;;;;;;;;;;4934026;28;19926;-58
2022/04/01 08:24:02;;;;;;;;;;;;;;;;;;4933772;28;19977;-60
2022/04/01 08:26:28;;;;;;;;;;;;;;;;;;4934340;28;19974;-59
2022/04/01 08:28:53;;;;;;;;;;;;;;;;;;4964025;28;19918;-59
2022/04/01 08:31:20;;;;;;;;;;;;;;;;;;4961707;28;20009;-60
2022/04/01 08:33:47;;;;;;;;;;;;;;;;;;4933850;28;20008;-60
2022/04/01 08:36:16;;;;;;;;;;;;;;;;;;4932348;28;20008;-59
2022/04/01 08:38:44;;;;;;;;;;;;;;;;;;4932959;28;19919;-56
2022/04/01 08:41:11;;;;;;;;;;;;;;;;;;4934176;28;20366;-59
2022/04/01 08:43:39;;;;;;;;;;;;;;;;;;4931081;28;19918;-59
2022/04/01 08:46:05;;;;;;;;;;;;;;;;;;4932778;28;19977;-57
2022/04/01 08:48:31;;;;;;;;;;;;;;;;;;4934306;28;19960;-58
2022/04/01 08:50:59;;;;;;;;;;;;;;;;;;4932923;28;19926;-58
2022/04/01 08:53:24;;;;;;;;;;;;;;;;;;4947575;28;20017;-60
2022/04/01 08:55:52;;;;;;;;;;;;;;;;;;4933129;28;19938;-59
2022/04/01 08:58:20;;;;;;;;;;;;;;;;;;4930396;28;19930;-59
2022/04/01 09:00:46;;;;;;;;;;;;;;;;;;4934039;28;19997;-59
2022/04/01 09:03:13;;;;;;;;;;;;;;;;;;4931707;28;19915;-60
2022/04/01 09:05:41;;;;;;;;;;;;;;;;;;4929636;28;19976;-60
2022/04/01 09:08:09;;;;;;;;;;;;;;;;;;4932835;28;19933;-61
2022/04/01 09:10:34;;;;;;;;;;;;;;;;;;4934001;28;19922;-61
2022/04/01 09:13:04;;;;;;;;;;;;;;;;;;4963615;28;19930;-60
2022/04/01 09:15:34;;;;;;;;;;;;;;;;;;4963984;28;20536;-60
2022/04/01 09:18:02;;;;;;;;;;;;;;;;;;4962868;28;19918;-60
2022/04/01 09:20:27;;;;;;;;;;;;;;;;;;4963345;28;20010;-60
2022/04/01 09:22:52;;;;;;;;;;;;;;;;;;4963580;28;19981;-60
2022/04/01 09:25:23;;;;;;;;;;;;;;;;;;4930104;28;19922;-60
2022/04/01 09:27:48;;;;;;;;;;;;;;;;;;4963607;28;19953;-59
2022/04/01 09:30:14;;;;;;;;;;;;;;;;;;4929507;28;20063;-59
2022/04/01 09:32:42;;;;;;;;;;;;;;;;;;4931740;28;19919;-60
2022/04/01 09:35:10;;;;;;;;;;;;;;;;;;4931626;28;19977;-59
2022/04/01 09:37:35;;;;;;;;;;;;;;;;;;4962008;28;19919;-60
2022/04/01 09:40:00;;;;;;;;;;;;;;;;;;4946833;28;20302;-59
2022/04/01 09:42:26;;;;;;;;;;;;;;;;;;4961937;28;19929;-59
2022/04/01 09:44:53;;;;;;;;;;;;;;;;;;4931765;28;20737;-59
2022/04/01 09:47:19;;;;;;;;;;;;;;;;;;4932342;28;19926;-60
2022/04/01 09:49:46;;;;;;;;;;;;;;;;;;4930481;28;19922;-59
2022/04/01 09:52:11;;;;;;;;;;;;;;;;;;4962529;28;19922;-59
2022/04/01 09:54:39;;;;;;;;;;;;;;;;;;4934906;28;19977;-60
2022/04/01 09:57:07;;;;;;;;;;;;;;;;;;4935467;28;20913;-59
2022/04/01 09:59:35;;;;;;;;;;;;;;;;;;4936548;28;19923;-59
2022/04/01 10:02:00;;;;;;;;;;;;;;;;;;4934871;28;19971;-64
2022/04/01 10:04:28;;;;;;;;;;;;;;;;;;4938051;28;20140;-60
2022/04/01 10:06:56;;;;;;;;;;;;;;;;;;4933286;28;20628;-59
2022/04/01 10:09:23;;;;;;;;;;;;;;;;;;4935841;28;19918;-61
2022/04/01 10:11:49;;;;;;;;;;;;;;;;;;4966120;28;20016;-60
2022/04/01 10:14:14;;;;;;;;;;;;;;;;;;4935607;28;20021;-62
2022/04/01 10:16:41;;;;;;;;;;;;;;;;;;4934665;28;19922;-62
2022/04/01 10:19:06;;;;;;;;;;;;;;;;;;4967024;28;19922;-60
2022/04/01 10:21:32;;;;;;;;;;;;;;;;;;4965900;28;19923;-60
2022/04/01 10:23:57;;;;;;;;;;;;;;;;;;4967060;28;19926;-61
2022/04/01 10:26:23;;;;;;;;;;;;;;;;;;4966301;28;20033;-61
2022/04/01 10:28:51;;;;;;;;;;;;;;;;;;4934781;28;19923;-59
2022/04/01 10:31:20;;;;;;;;;;;;;;;;;;4934855;28;19982;-60
2022/04/01 10:33:46;;;;;;;;;;;;;;;;;;4964191;28;19928;-60
2022/04/01 10:36:12;;;;;;;;;;;;;;;;;;4934975;28;19927;-62
2022/04/01 10:38:39;;;;;;;;;;;;;;;;;;4936054;28;19925;-60
2022/04/01 10:41:05;;;;;;;;;;;;;;;;;;4965871;28;19922;-61
2022/04/01 10:43:33;;;;;;;;;;;;;;;;;;4935130;28;19922;-59
2022/04/01 10:45:58;;;;;;;;;;;;;;;;;;4934458;28;20030;-60
2022/04/01 10:53:52;;;;;;;;;;;;;;;;;;4966570;28;19973;-59
2022/04/01 10:56:17;;;;;;;;;;;;;;;;;;4965014;28;20469;-60
2022/04/01 10:58:42;;;;;;;;;;;;;;;;;;4965889;28;19926;-60
2022/04/01 11:01:07;;;;;;;;;;;;;;;;;;4949046;28;19918;-60
2022/04/01 11:03:33;;;;;;;;;;;;;;;;;;4935236;28;20465;-61
2022/04/01 11:05:58;;;;;;;;;;;;;;;;;;4932403;28;20032;-60
2022/04/01 11:08:26;;;;;;;;;;;;;;;;;;4966107;28;19965;-61
2022/04/01 11:10:53;;;;;;;;;;;;;;;;;;4948403;28;20791;-61
2022/04/01 11:13:19;;;;;;;;;;;;;;;;;;4933268;28;19977;-61
2022/04/01 11:15:44;;;;;;;;;;;;;;;;;;4965029;28;20008;-61
2022/04/01 11:18:15;;;;;;;;;;;;;;;;;;4936813;28;19926;-60
2022/04/01 11:20:43;;;;;;;;;;;;;;;;;;4935923;28;19965;-60
2022/04/01 11:23:11;;;;;;;;;;;;;;;;;;4935011;28;19919;-61
2022/04/01 11:25:38;;;;;;;;;;;;;;;;;;4932385;28;19927;-62
2022/04/01 11:28:07;;;;;;;;;;;;;;;;;;4931547;28;19918;-61
2022/04/01 11:30:37;;;;;;;;;;;;;;;;;;4933871;28;19923;-61
2022/04/01 11:33:05;;;;;;;;;;;;;;;;;;4960695;28;19927;-61
2022/04/01 11:35:34;;;;;;;;;;;;;;;;;;4963922;28;20001;-61
2022/04/01 11:38:00;;;;;;;;;;;;;;;;;;4932396;28;19918;-60
2022/04/01 11:40:30;;;;;;;;;;;;;;;;;;4933337;28;19977;-61
2022/04/01 11:43:02;;;;;;;;;;;;;;;;;;4964048;28;20592;-60
2022/04/01 11:45:27;;;;;;;;;;;;;;;;;;4933083;28;19930;-61
2022/04/01 11:47:53;;;;;;;;;;;;;;;;;;4964135;28;20004;-61
2022/04/01 11:50:23;;;;;;;;;;;;;;;;;;4932417;28;19926;-61
2022/04/01 11:52:52;;;;;;;;;;;;;;;;;;4931987;28;19946;-62
2022/04/01 11:55:18;;;;;;;;;;;;;;;;;;4933449;28;19933;-61
2022/04/01 11:57:45;;;;;;;;;;;;;;;;;;4961782;28;19926;-60
2022/04/01 12:00:10;;;;;;;;;;;;;;;;;;4933030;28;19933;-62
2022/04/01 12:02:38;;;;;;;;;;;;;;;;;;4947006;28;19926;-61
2022/04/01 12:05:04;;;;;;;;;;;;;;;;;;4931980;28;19945;-62
2022/04/01 12:10:18;;;;;;;;;;;;;;;;;;4932436;28;19966;-61
2022/04/01 12:12:43;;;;;;;;;;;;;;;;;;4931465;28;19929;-60
2022/04/01 12:15:13;;;;;;;;;;;;;;;;;;4963681;28;19997;-61
2022/04/01 12:17:38;;;;;;;;;;;;;;;;;;4962489;28;19976;-60
2022/04/01 12:20:04;;;;;;;;;;;;;;;;;;4963373;28;20518;-63
2022/04/01 12:22:35;;;;;;;;;;;;;;;;;;4932376;28;20382;-59
2022/04/01 12:25:00;;;;;;;;;;;;;;;;;;4933130;28;19929;-59
2022/04/01 12:27:27;;;;;;;;;;;;;;;;;;4932375;28;20029;-60
2022/04/01 12:29:52;;;;;;;;;;;;;;;;;;4962114;28;19992;-60
2022/04/01 12:32:20;;;;;;;;;;;;;;;;;;4961703;28;19922;-60
2022/04/01 12:34:46;;;;;;;;;;;;;;;;;;4931307;28;19926;-60
2022/04/01 12:37:11;;;;;;;;;;;;;;;;;;4931688;28;19922;-60
2022/04/01 12:39:45;;;;;;;;;;;;;;;;;;4963792;28;20630;-61
2022/04/01 12:42:10;;;;;;;;;;;;;;;;;;4961475;28;20098;-60
2022/04/01 12:44:41;;;;;;;;;;;;;;;;;;4932955;28;19918;-59
2022/04/01 12:47:09;;;;;;;;;;;;;;;;;;4962161;28;20795;-60
2022/04/01 12:49:34;;;;;;;;;;;;;;;;;;4932280;28;19929;-60
2022/04/01 12:52:04;;;;;;;;;;;;;;;;;;4932080;28;20446;-60
2022/04/01 12:54:32;;;;;;;;;;;;;;;;;;4961050;28;19993;-60
2022/04/01 12:56:58;;;;;;;;;;;;;;;;;;4932684;28;20161;-59
2022/04/01 12:59:24;;;;;;;;;;;;;;;;;;4929623;28;19922;-59
2022/04/01 13:01:49;;;;;;;;;;;;;;;;;;4963677;28;19973;-59
2022/04/01 13:04:15;;;;;;;;;;;;;;;;;;4932350;28;19926;-60
2022/04/01 13:06:40;;;;;;;;;;;;;;;;;;4931035;28;20394;-60
2022/04/01 13:09:07;;;;;;;;;;;;;;;;;;4930863;28;20305;-61
2022/04/01 13:11:34;;;;;;;;;;;;;;;;;;4931779;28;19922;-60
2022/04/01 13:14:02;;;;;;;;;;;;;;;;;;4961081;28;20009;-61
2022/04/01 13:16:30;;;;;;;;;;;;;;;;;;4963064;28;19956;-60
2022/04/01 13:18:55;;;;;;;;;;;;;;;;;;4963112;28;19923;-60
2022/04/01 13:21:24;;;;;;;;;;;;;;;;;;4933111;28;19948;-62
2022/04/01 13:23:49;;;;;;;;;;;;;;;;;;4931200;28;20010;-60
2022/04/01 13:26:21;;;;;;;;;;;;;;;;;;4932636;28;19954;-60
2022/04/01 13:28:46;;;;;;;;;;;;;;;;;;4929313;28;19970;-61
2022/04/01 13:31:16;;;;;;;;;;;;;;;;;;4930164;28;19922;-61
2022/04/01 13:33:43;;;;;;;;;;;;;;;;;;4963757;28;19926;-61
2022/04/01 13:36:10;;;;;;;;;;;;;;;;;;4930520;28;19922;-60
2022/04/01 13:38:36;;;;;;;;;;;;;;;;;;4963129;28;19926;-59
2022/04/01 13:41:01;;;;;;;;;;;;;;;;;;4963364;28;20389;-59
2022/04/01 13:43:27;;;;;;;;;;;;;;;;;;4961806;28;20368;-60
2022/04/01 13:45:57;;;;;;;;;;;;;;;;;;4931487;28;19938;-61
2022/04/01 13:48:24;;;;;;;;;;;;;;;;;;4932094;28;19919;-60
2022/04/01 13:50:53;;;;;;;;;;;;;;;;;;4930867;28;19922;-60
2022/04/01 13:53:21;;;;;;;;;;;;;;;;;;4932430;28;20017;-60
2022/04/01 13:55:46;;;;;;;;;;;;;;;;;;4945271;28;19941;-60
2022/04/01 13:58:12;;;;;;;;;;;;;;;;;;4945987;28;20421;-62
2022/04/01 14:00:40;;;;;;;;;;;;;;;;;;4929972;28;20037;-60
2022/04/01 14:03:08;;;;;;;;;;;;;;;;;;4931949;28;19918;-63
2022/04/01 14:05:33;;;;;;;;;;;;;;;;;;4946414;28;19945;-60
2022/04/01 14:08:01;;;;;;;;;;;;;;;;;;4930615;28;19927;-61
2022/04/01 14:10:29;;;;;;;;;;;;;;;;;;4933551;28;19933;-59
2022/04/01 14:12:55;;;;;;;;;;;;;;;;;;4930883;28;19926;-58
2022/04/01 14:15:21;;;;;;;;;;;;;;;;;;4932510;28;21734;-60
2022/04/01 14:17:46;;;;;;;;;;;;;;;;;;4961738;28;19922;-60
2022/04/01 14:20:12;;;;;;;;;;;;;;;;;;4962507;28;19964;-59
2022/04/01 14:22:37;;;;;;;;;;;;;;;;;;4931368;28;20005;-59
2022/04/01 14:25:05;;;;;;;;;;;;;;;;;;4932112;28;19922;-60
2022/04/01 14:27:30;;;;;;;;;;;;;;;;;;4931958;28;20114;-60
2022/04/01 14:30:17;;;;;;;;;;;;;;;;;;4932023;28;20587;-60
2022/04/01 14:32:45;;;;;;;;;;;;;;;;;;4945001;28;19918;-62
2022/04/01 14:35:11;;;;;;;;;;;;;;;;;;4930716;28;19933;-61
2022/04/01 14:37:39;;;;;;;;;;;;;;;;;;4931394;28;19918;-59
2022/04/01 14:40:09;;;;;;;;;;;;;;;;;;4961725;28;19923;-62
2022/04/01 14:42:34;;;;;;;;;;;;;;;;;;4964772;28;20495;-61
2022/04/01 14:45:03;;;;;;;;;;;;;;;;;;4965691;28;19922;-62
2022/04/01 14:47:28;;;;;;;;;;;;;;;;;;4936027;28;20009;-62
2022/04/01 14:49:53;;;;;;;;;;;;;;;;;;4964326;28;19922;-61
2022/04/01 14:52:22;;;;;;;;;;;;;;;;;;4934611;28;19927;-62
2022/04/01 14:54:47;;;;;;;;;;;;;;;;;;4934073;28;19942;-58
2022/04/01 14:57:14;;;;;;;;;;;;;;;;;;4962980;28;20338;-60
2022/04/01 14:59:42;;;;;;;;;;;;;;;;;;4932896;28;19929;-60
2022/04/01 15:02:08;;;;;;;;;;;;;;;;;;4935000;28;19926;-61
2022/04/01 15:04:33;;;;;;;;;;;;;;;;;;4966787;28;19969;-62
2022/04/01 15:06:58;;;;;;;;;;;;;;;;;;4934605;28;19927;-60
2022/04/01 15:09:28;;;;;;;;;;;;;;;;;;4966736;28;20005;-60
2022/04/01 15:11:55;;;;;;;;;;;;;;;;;;4966785;28;19929;-58
2022/04/01 15:14:24;;;;;;;;;;;;;;;;;;4949438;28;19965;-60
2022/04/01 15:16:49;;;;;;;;;;;;;;;;;;4935572;28;20013;-58
2022/04/01 15:19:15;;;;;;;;;;;;;;;;;;4935539;28;19922;-62
2022/04/01 15:21:43;;;;;;;;;;;;;;;;;;4934167;28;19922;-61
2022/04/01 15:24:14;;;;;;;;;;;;;;;;;;4966006;28;21685;-60
2022/04/01 15:26:39;;;;;;;;;;;;;;;;;;4934167;28;19946;-59
2022/04/01 15:29:04;;;;;;;;;;;;;;;;;;4933877;28;20856;-60
2022/04/01 15:31:30;;;;;;;;;;;;;;;;;;4930604;28;19922;-60
2022/04/01 15:33:56;;;;;;;;;;;;;;;;;;4932596;28;20437;-61
2022/04/01 15:36:22;;;;;;;;;;;;;;;;;;4933866;28;19930;-59
2022/04/01 15:38:47;;;;;;;;;;;;;;;;;;4963549;28;20026;-59
2022/04/01 15:41:12;;;;;;;;;;;;;;;;;;4965754;28;19922;-58
2022/04/01 15:43:37;;;;;;;;;;;;;;;;;;4934028;28;19929;-62
2022/04/01 15:46:03;;;;;;;;;;;;;;;;;;4934554;28;19933;-59
2022/04/01 15:48:28;;;;;;;;;;;;;;;;;;4935309;28;19945;-59
2022/04/01 15:50:53;;;;;;;;;;;;;;;;;;4931771;28;19969;-59
2022/04/01 15:53:19;;;;;;;;;;;;;;;;;;4935273;28;19922;-60
2022/04/01 15:55:46;;;;;;;;;;;;;;;;;;4961920;28;19926;-59
2022/04/01 15:58:14;;;;;;;;;;;;;;;;;;4934520;28;21980;-60
2022/04/01 16:00:39;;;;;;;;;;;;;;;;;;4964096;28;21651;-60
2022/04/01 16:03:05;;;;;;;;;;;;;;;;;;4965031;28;19998;-60
2022/04/01 16:05:30;;;;;;;;;;;;;;;;;;4964708;28;19922;-60
2022/04/01 16:07:55;;;;;;;;;;;;;;;;;;4933115;28;19958;-60
2022/04/01 16:10:23;;;;;;;;;;;;;;;;;;4932999;28;19922;-59
2022/04/01 16:12:52;;;;;;;;;;;;;;;;;;4933900;28;19922;-59
2022/04/01 16:15:20;;;;;;;;;;;;;;;;;;4932334;28;19986;-59
2022/04/01 16:17:45;;;;;;;;;;;;;;;;;;4963993;28;19949;-59
2022/04/01 16:20:13;;;;;;;;;;;;;;;;;;4932211;28;19926;-58
2022/04/01 16:22:41;;;;;;;;;;;;;;;;;;4964653;28;20424;-59
2022/04/01 16:25:06;;;;;;;;;;;;;;;;;;4964249;28;19919;-60
2022/04/01 16:27:32;;;;;;;;;;;;;;;;;;4932210;28;20609;-59
2022/04/01 16:29:57;;;;;;;;;;;;;;;;;;4963600;28;19918;-60
2022/04/01 16:32:23;;;;;;;;;;;;;;;;;;4931919;28;19922;-58
2022/04/01 16:34:52;;;;;;;;;;;;;;;;;;4933304;28;19919;-58
2022/04/01 16:37:22;;;;;;;;;;;;;;;;;;4932692;28;19981;-58
2022/04/01 16:39:48;;;;;;;;;;;;;;;;;;4933015;28;19933;-59
2022/04/01 16:42:16;;;;;;;;;;;;;;;;;;4935751;28;19922;-59
2022/04/01 16:44:41;;;;;;;;;;;;;;;;;;4963177;28;19932;-59
2022/04/01 16:47:09;;;;;;;;;;;;;;;;;;4946817;28;19933;-59
2022/04/01 16:49:38;;;;;;;;;;;;;;;;;;4933599;28;20021;-59
2022/04/01 16:52:04;;;;;;;;;;;;;;;;;;4946648;28;20111;-59
2022/04/01 16:54:29;;;;;;;;;;;;;;;;;;4933403;28;20098;-59
2022/04/01 16:56:54;;;;;;;;;;;;;;;;;;4932175;28;19937;-59
2022/04/01 16:59:23;;;;;;;;;;;;;;;;;;4930811;28;20489;-59
2022/04/01 17:01:48;;;;;;;;;;;;;;;;;;4932927;28;19923;-60
2022/04/01 17:04:13;;;;;;;;;;;;;;;;;;4927956;28;19972;-58
2022/04/01 17:14:51;;;;;;;;;;;;;;;;;;4930927;28;19918;-58
2022/04/01 17:17:17;;;;;;;;;;;;;;;;;;4933335;28;19922;-60
2022/04/01 17:19:45;;;;;;;;;;;;;;;;;;4946938;28;19918;-60
2022/04/01 17:22:10;;;;;;;;;;;;;;;;;;4962733;28;20333;-60
2022/04/01 17:24:36;;;;;;;;;;;;;;;;;;4932297;28;21079;-58
2022/04/01 17:27:02;;;;;;;;;;;;;;;;;;4931645;28;19973;-60
2022/04/01 17:29:27;;;;;;;;;;;;;;;;;;4930479;28;19929;-60
2022/04/01 17:31:55;;;;;;;;;;;;;;;;;;4962251;28;19922;-60
2022/04/01 17:34:20;;;;;;;;;;;;;;;;;;4962858;28;19925;-60
2022/04/01 17:36:45;;;;;;;;;;;;;;;;;;4932704;28;19922;-60
2022/04/01 17:39:13;;;;;;;;;;;;;;;;;;4961804;28;19926;-60
2022/04/01 17:41:38;;;;;;;;;;;;;;;;;;4964487;28;19918;-59
2022/04/01 17:44:05;;;;;;;;;;;;;;;;;;4947233;28;19926;-59
2022/04/01 17:46:33;;;;;;;;;;;;;;;;;;4946981;28;20385;-59
2022/04/01 17:48:58;;;;;;;;;;;;;;;;;;4933934;28;20406;-60
2022/04/01 17:51:24;;;;;;;;;;;;;;;;;;4929262;28;19926;-64
2022/04/01 17:53:51;;;;;;;;;;;;;;;;;;4933976;28;19929;-60
2022/04/01 17:56:21;;;;;;;;;;;;;;;;;;4933709;28;19977;-60
2022/04/01 17:58:49;;;;;;;;;;;;;;;;;;4945336;28;20023;-61